Reading Center, New York
Current Conditions -  °F | °C
As of 1:53 AM on Saturday 20 Dec 2014 (Local Time) from KPEO Reporting Station
Overcast Overcast  
Wind Chill: 23°   Ceiling: 1800
Heat Index: 28°   Visibility: 10mi
Dew Point: 22°   Wind: 5mph
Humidity: 78%   Direction: 310°NW
Pressure: 30.2"   Gusts: NA
Location:  42.43°N, 76.93°W
Report Text: KPEO 200653Z AUTO 31004KT 10SM OVC018 M02/M06 A3020 RMK AO2 SLP241 T10221056
Loading
Personal Weather Stations






























Interactive Weather Map New forecast layout! Learn more

10-Day Weather Forecast

Advertisements
Track Severe Weather on mobile